Time;durP1;ratioP1;P1;durP2;ratioP2;P2;SDS_P1;SDS_P2;PMS_P1;PMS_P2;Temp;Humidity;BMP_temperature;BMP_pressure;BME280_temperature;BME280_humidity;BME280_pressure;Samples;Min_cycle;Max_cycle;Signal;HPM_P1;HPM_P2
2022/02/11 00:00:21;;;;;;;21.92;6.65;;;7.50;99.90;;;7.59;71.12;102071.41;5115073;28;20366;-70
2022/02/11 00:05:56;;;;;;;25.33;6.65;;;7.40;99.90;;;7.50;72.60;102082.56;5114771;28;20044;-70
2022/02/11 00:08:26;;;;;;;24.70;6.78;;;7.40;99.90;;;7.67;72.68;102081.28;5114869;28;20112;-70
2022/02/11 00:10:54;;;;;;;21.17;6.55;;;7.50;99.90;;;7.59;72.49;102074.91;5114804;28;20043;-70
2022/02/11 00:13:22;;;;;;;18.55;6.95;;;7.50;99.90;;;6.41;72.74;101902.34;5114782;27;20454;-70
2022/02/11 00:15:54;;;;;;;19.48;6.88;;;7.50;99.90;;;7.41;73.39;102045.47;5114480;28;20069;-69
2022/02/11 00:18:22;;;;;;;22.48;6.28;;;7.50;99.90;;;7.38;73.95;102055.91;5114113;28;20446;-69
2022/02/11 00:20:53;;;;;;;28.60;6.90;;;7.40;99.90;;;7.48;74.39;102076.38;5114767;28;20050;-70
2022/02/11 00:23:22;;;;;;;23.38;6.97;;;7.40;99.90;;;7.69;74.57;102083.94;5114665;28;20043;-70
2022/02/11 00:25:55;;;;;;;23.17;7.55;;;7.50;99.90;;;7.45;74.14;102057.88;5114440;28;20036;-70
2022/02/11 00:33:59;;;;;;;24.80;6.72;;;7.50;99.90;;;7.49;74.62;102075.50;5114702;28;20043;-69
2022/02/11 00:36:34;;;;;;;19.55;5.90;;;7.40;99.90;;;7.53;75.01;102080.00;5114412;28;20043;-71
2022/02/11 00:39:18;;;;;;;32.45;7.20;;;7.40;99.90;;;7.56;74.81;102081.84;5113177;28;20092;-70
2022/02/11 01:04:16;;;;;;;31.17;7.32;;;7.40;99.90;;;7.42;76.06;102068.31;5113869;28;20389;-70
2022/02/11 01:06:48;;;;;;;23.05;6.22;;;7.40;99.90;;;7.45;76.63;102073.66;5113704;28;20500;-70
2022/02/11 01:09:22;;;;;;;25.92;6.60;;;7.40;99.90;;;7.46;77.16;102071.91;5113642;28;20545;-70
2022/02/11 01:11:53;;;;;;;24.60;6.67;;;7.40;99.90;;;7.52;77.13;102070.34;5113585;28;20562;-70
2022/02/11 01:14:32;;;;;;;26.42;6.60;;;7.40;99.90;;;6.89;77.34;101960.72;5113629;28;20438;-70
2022/02/11 01:17:09;;;;;;;28.35;7.40;;;7.40;99.90;;;7.48;77.91;102081.63;5113545;28;20043;-70
2022/02/11 01:19:47;;;;;;;27.63;7.03;;;7.40;99.90;;;7.49;78.39;102075.50;5113495;28;20039;-70
2022/02/11 01:22:26;;;;;;;32.05;8.60;;;7.50;99.90;;;7.42;79.86;102084.09;5113402;28;20561;-70
2022/02/11 01:25:24;;;;;;;24.63;7.50;;;7.40;99.90;;;7.38;81.18;102097.13;5113477;28;20040;-70
2022/02/11 01:28:01;;;;;;;26.92;7.28;;;7.30;99.90;;;7.49;81.76;102087.81;5113337;28;20093;-70
2022/02/11 01:30:53;;;;;;;25.13;6.90;;;7.40;99.90;;;7.32;81.09;102072.41;5113604;28;20104;-70
2022/02/11 01:36:22;;;;;;;28.25;6.68;;;7.30;99.90;;;7.39;79.44;102060.34;5113382;28;20040;-70
2022/02/11 01:39:16;;;;;;;33.85;8.18;;;7.40;99.90;;;7.46;79.89;102085.97;5113358;28;20456;-71
2022/02/11 01:44:54;;;;;;;26.30;7.07;;;7.40;99.90;;;7.09;78.87;101991.06;5111410;28;20048;-70
2022/02/11 01:47:54;;;;;;;22.25;8.25;;;7.50;99.90;;;7.66;78.76;102095.31;5113010;28;20046;-70
2022/02/11 01:50:47;;;;;;;25.00;6.32;;;7.50;99.90;;;7.66;78.55;102108.47;5113123;28;20059;-70
2022/02/11 01:53:25;;;;;;;34.40;8.20;;;7.60;99.90;;;7.77;78.30;102098.22;5113138;28;20043;-69
2022/02/11 01:56:14;;;;;;;22.92;7.97;;;7.70;99.90;;;7.82;78.59;102117.69;5112995;28;20472;-70
2022/02/11 01:59:30;;;;;;;28.60;7.70;;;7.70;99.90;;;7.73;78.78;102113.03;5113044;28;20122;-70
2022/02/11 02:16:40;;;;;;;25.88;6.82;;;7.50;99.90;;;7.61;75.33;102109.16;5109298;28;20051;-70
2022/02/11 02:24:51;;;;;;;25.35;6.75;;;7.70;99.90;;;7.74;77.20;102122.72;5112810;28;20093;-70
2022/02/11 02:27:39;;;;;;;22.55;6.07;;;7.60;99.90;;;7.47;79.50;102124.59;5112796;28;20044;-70
2022/02/11 02:57:59;;;;;;;16.10;5.57;;;7.10;99.90;;;6.93;85.17;102158.06;5132001;27;20044;-70
2022/02/11 03:49:01;;;;;;;39.22;8.52;;;7.20;99.90;;;7.26;78.44;102201.19;5115308;28;20501;-70
2022/02/11 04:55:22;;;;;;;27.92;8.13;;;7.50;99.90;;;7.34;73.41;102296.16;5113791;28;20104;-71
2022/02/11 05:00:39;;;;;;;34.75;7.70;;;7.60;99.90;;;7.42;71.88;102349.94;5113965;28;20152;-70
2022/02/11 05:03:08;;;;;;;33.70;8.00;;;7.40;99.90;;;7.15;71.17;102314.84;5129723;27;20407;-70
2022/02/11 05:05:49;;;;;;;31.45;7.70;;;7.40;99.90;;;7.38;72.05;102362.94;5113133;28;20043;-70
2022/02/11 05:08:19;;;;;;;32.67;8.98;;;7.30;99.90;;;7.44;71.95;102357.88;5113720;28;20066;-70
2022/02/11 05:10:49;;;;;;;25.77;7.78;;;7.30;99.90;;;7.45;72.29;102350.06;5113683;28;20131;-70
2022/02/11 05:13:19;;;;;;;33.17;7.82;;;7.40;99.90;;;7.33;72.87;102362.81;5113762;28;20039;-70
2022/02/11 05:15:48;;;;;;;32.90;8.52;;;7.30;99.90;;;7.07;73.62;102364.59;5113575;28;20040;-70
2022/02/11 05:18:18;;;;;;;32.15;9.40;;;7.10;99.90;;;7.14;73.88;102379.72;5113521;27;20040;-70
2022/02/11 05:20:46;;;;;;;29.15;7.60;;;7.10;99.90;;;7.14;73.88;102392.00;5112333;28;20097;-70
2022/02/11 05:23:17;;;;;;;32.03;7.70;;;7.00;99.90;;;7.31;73.80;102375.03;5113601;28;20122;-70
2022/02/11 05:25:45;;;;;;;29.88;7.65;;;7.20;99.90;;;7.35;73.93;102394.44;5113395;28;20063;-70
2022/02/11 05:28:14;;;;;;;34.67;8.05;;;7.30;99.90;;;7.51;73.83;102399.38;5112079;28;20051;-70
2022/02/11 05:30:44;;;;;;;38.97;8.23;;;7.40;99.90;;;7.28;74.46;102422.28;5113307;28;20040;-70
2022/02/11 05:33:14;;;;;;;34.55;8.70;;;7.20;99.90;;;7.32;75.28;102439.09;5113574;28;20047;-70
2022/02/11 05:35:43;;;;;;;38.50;8.60;;;7.20;99.90;;;7.58;75.21;102419.78;5113189;28;20044;-70
2022/02/11 05:38:12;;;;;;;40.30;8.73;;;7.40;99.90;;;7.52;75.37;102432.75;5113301;28;20481;-70
2022/02/11 05:40:40;;;;;;;33.40;8.63;;;7.40;99.90;;;7.69;74.91;102444.72;5113157;28;20050;-70
2022/02/11 05:43:08;;;;;;;31.48;7.18;;;7.50;99.90;;;7.62;72.35;102451.53;5113109;28;20123;-70
2022/02/11 05:45:37;;;;;;;21.90;7.07;;;7.60;99.90;;;7.07;71.69;102353.16;5113165;28;20116;-70
2022/02/11 05:48:09;;;;;;;26.20;6.70;;;7.60;99.90;;;7.73;71.56;102459.78;5113058;28;20126;-70
2022/02/11 05:50:38;;;;;;;24.42;7.05;;;7.70;99.90;;;7.77;71.45;102454.66;5113232;28;20043;-70
2022/02/11 05:53:07;;;;;;;28.88;7.20;;;7.70;99.90;;;7.52;72.32;102453.81;5113077;28;20071;-70
2022/02/11 05:55:36;;;;;;;32.72;8.27;;;7.50;99.90;;;7.59;72.95;102451.44;5112758;28;20058;-70
2022/02/11 05:58:04;;;;;;;31.13;8.00;;;7.60;99.90;;;7.38;73.84;102465.59;5128855;28;20082;-70
2022/02/11 06:00:32;;;;;;;34.60;7.82;;;7.40;99.90;;;7.57;74.08;102468.91;5113107;28;20439;-70
2022/02/11 06:03:01;;;;;;;28.27;7.60;;;7.50;99.90;;;7.48;74.39;102472.97;5112823;28;20478;-70
2022/02/11 06:05:31;;;;;;;32.83;8.93;;;7.40;99.90;;;7.55;74.94;102477.63;5112838;28;20094;-70
2022/02/11 06:07:59;;;;;;;30.33;8.73;;;7.50;99.90;;;7.24;75.90;102467.75;5112685;28;20565;-70
2022/02/11 06:10:27;;;;;;;34.33;8.85;;;7.30;99.90;;;6.84;76.05;102378.69;5112856;28;20497;-70
2022/02/11 06:12:56;;;;;;;37.03;9.15;;;7.30;99.90;;;7.48;76.08;102471.25;5113285;28;20109;-70
2022/02/11 06:15:24;;;;;;;40.10;9.52;;;7.40;99.90;;;7.29;75.84;102480.28;5112758;28;20516;-70
2022/02/11 06:17:53;;;;;;;33.00;8.07;;;7.30;99.90;;;7.22;76.55;102475.63;5115533;28;20445;-70
2022/02/11 06:20:28;;;;;;;52.97;9.63;;;7.20;99.90;;;7.19;76.81;102482.50;5117003;28;20733;-70
2022/02/11 06:22:58;;;;;;;37.15;9.35;;;7.10;99.90;;;7.18;76.90;102493.91;5116962;28;20043;-70
2022/02/11 06:25:27;;;;;;;43.90;10.02;;;7.10;99.90;;;7.09;77.21;102493.53;5116943;28;20063;-70
2022/02/11 06:27:56;;;;;;;47.92;9.38;;;7.10;99.90;;;7.11;76.89;102465.56;5116835;28;20040;-70
2022/02/11 06:30:25;;;;;;;46.33;9.55;;;7.20;99.90;;;7.44;76.25;102508.84;5116814;28;20063;-70
2022/02/11 06:33:00;;;;;;;43.10;9.07;;;7.30;99.90;;;7.42;76.17;102501.72;5116671;28;20036;-70
2022/02/11 06:35:31;;;;;;;43.42;9.57;;;7.30;99.90;;;7.47;75.74;102513.31;5116670;28;20039;-69
2022/02/11 06:38:02;;;;;;;44.55;10.07;;;7.40;99.90;;;7.44;74.92;102502.69;5117053;28;20054;-70
2022/02/11 06:40:31;;;;;;;40.05;8.30;;;7.50;99.90;;;7.29;73.62;102518.84;5116454;28;20489;-70
2022/02/11 06:42:59;;;;;;;41.33;7.85;;;7.30;99.90;;;7.28;71.14;102538.09;5116523;28;20047;-70
2022/02/11 06:45:28;;;;;;;37.53;8.98;;;7.30;99.90;;;7.24;70.83;102546.72;5116357;28;20051;-70
2022/02/11 06:47:56;;;;;;;35.65;8.80;;;7.20;99.90;;;7.52;70.16;102560.03;5116922;28;20036;-70
2022/02/11 06:50:25;;;;;;;41.83;9.02;;;7.40;99.90;;;7.32;70.37;102583.00;5116571;28;20093;-70
2022/02/11 06:52:55;;;;;;;40.58;9.25;;;7.30;99.90;;;7.16;70.12;102542.94;5149501;27;20042;-70
2022/02/11 06:55:26;;;;;;;40.80;8.98;;;7.20;99.90;;;6.98;70.54;102560.66;5116319;28;20056;-70
2022/02/11 06:57:54;;;;;;;;;;;7.10;99.90;;;6.66;70.10;102488.47;5116715;28;20050;-71
2022/02/11 07:00:22;;;;;;;38.22;8.55;;;7.10;99.90;;;7.28;69.91;102593.34;5131810;27;19937;-70
2022/02/11 07:02:51;;;;;;;40.90;8.60;;;7.20;99.90;;;7.31;69.80;102604.03;5116040;28;20091;-70
2022/02/11 07:05:20;;;;;;;36.17;8.00;;;7.20;99.90;;;7.20;69.56;102595.72;5116119;28;20473;-70
2022/02/11 07:07:49;;;;;;;37.00;8.73;;;7.10;99.90;;;7.29;69.39;102608.31;5115900;28;20047;-69
2022/02/11 07:10:18;;;;;;;45.40;8.50;;;7.20;99.90;;;7.53;70.13;102626.75;5115920;28;20046;-70
2022/02/11 07:12:49;;;;;;;45.38;8.38;;;7.40;99.90;;;7.60;69.83;102599.78;5116347;28;20388;-70
2022/02/11 07:15:17;;;;;;;;;;;7.60;99.90;;;7.49;70.38;102627.47;5116599;28;20051;-70
2022/02/11 07:17:45;;;;;;;38.85;8.18;;;7.50;99.90;;;7.43;70.37;102633.44;5116041;28;19919;-70
2022/02/11 07:20:14;;;;;;;43.53;8.02;;;7.40;99.90;;;7.52;69.79;102633.75;5115738;28;20167;-68
2022/02/11 07:22:43;;;;;;;35.20;8.43;;;7.40;99.90;;;7.54;69.40;102646.97;5115802;28;20122;-69
2022/02/11 07:25:14;;;;;;;31.38;7.68;;;7.50;99.90;;;7.30;69.77;102646.94;5115368;27;20450;-69
2022/02/11 07:27:42;;;;;;;31.23;7.95;;;7.30;99.90;;;7.26;69.08;102653.84;5114941;28;20050;-69
2022/02/11 07:30:31;;;;;;;28.50;7.90;;;7.30;99.90;;;7.12;68.97;102638.38;5115576;28;20134;-68
2022/02/11 07:33:00;;;;;;;25.23;7.43;;;7.10;99.90;;;7.42;68.37;102671.09;5115619;28;20044;-67
2022/02/11 07:35:29;;;;;;;33.17;7.97;;;7.30;99.90;;;7.55;68.77;102669.84;5115745;28;20044;-69
2022/02/11 07:37:58;;;;;;;27.50;8.25;;;7.40;99.90;;;7.54;68.32;102681.19;5115264;28;20044;-68
2022/02/11 07:40:28;;;;;;;39.53;7.95;;;7.40;99.90;;;7.67;68.58;102684.34;5115443;28;20047;-67
2022/02/11 07:42:56;;;;;;;34.50;8.00;;;7.50;99.90;;;7.65;67.65;102682.47;5115210;28;20039;-69
2022/02/11 07:45:27;;;;;;;32.22;7.82;;;7.60;99.90;;;7.81;67.60;102695.38;5115307;28;20036;-69
2022/02/11 07:47:57;;;;;;;33.05;7.47;;;7.70;99.90;;;7.78;67.53;102706.69;5115169;28;20074;-70
2022/02/11 07:50:26;;;;;;;38.65;8.52;;;7.70;99.90;;;7.88;66.83;102700.91;5114895;28;20097;-70
2022/02/11 07:52:54;;;;;;;47.25;9.43;;;7.80;99.90;;;7.41;66.19;102598.25;5114672;28;20127;-69
2022/02/11 07:55:23;;;;;;;38.38;8.15;;;7.90;99.90;;;7.96;66.08;102717.00;5114784;28;20055;-69
2022/02/11 07:57:53;;;;;;;43.90;9.20;;;7.90;99.90;;;8.15;66.13;102730.88;5115107;28;20055;-70
2022/02/11 08:00:28;;;;;;;28.13;8.40;;;8.00;99.90;;;7.64;66.14;102612.22;5114930;28;20411;-71
2022/02/11 08:02:58;;;;;;;37.40;7.90;;;8.20;99.90;;;8.01;66.51;102716.31;5114927;28;20047;-66
2022/02/11 08:05:26;;;;;;;42.97;8.70;;;8.10;99.90;;;8.09;66.18;102738.56;5148103;27;20697;-68
2022/02/11 08:07:56;;;;;;;32.78;8.10;;;8.00;99.90;;;8.31;65.63;102752.53;5114738;28;20277;-66
2022/02/11 08:10:25;;;;;;;42.42;8.07;;;8.20;99.90;;;8.37;65.04;102750.09;5114793;28;20052;-66
2022/02/11 08:12:53;;;;;;;32.58;7.93;;;8.20;99.90;;;8.43;64.53;102766.16;5114727;28;20122;-67
2022/02/11 08:15:22;;;;;;;30.02;8.57;;;8.30;99.90;;;8.51;63.28;102764.66;5114495;28;20061;-66
2022/02/11 08:17:50;;;;;;;33.00;7.88;;;8.40;99.90;;;8.54;62.96;102783.22;5130593;27;20051;-67
2022/02/11 08:20:20;;;;;;;33.35;8.25;;;8.40;99.90;;;8.64;63.06;102766.88;5114513;28;20071;-69
2022/02/11 08:22:49;;;;;;;31.67;7.77;;;8.50;99.90;;;8.13;62.47;102742.19;5114627;28;20032;-68
2022/02/11 08:25:18;;;;;;;26.63;7.60;;;8.40;99.90;;;8.48;61.31;102805.00;5113210;28;20290;-70
2022/02/11 08:27:47;;;;;;;26.00;6.70;;;8.30;99.90;;;8.16;59.74;102795.94;5114480;28;20075;-63
2022/02/11 08:30:38;;;;;;;25.60;6.57;;;8.20;99.90;;;8.16;59.42;102810.84;5114390;28;20043;-64
2022/02/11 08:33:07;;;;;;;25.88;6.80;;;8.10;99.90;;;8.26;58.93;102796.28;5114319;28;20077;-73
2022/02/11 08:35:37;;;;;;;24.67;6.35;;;8.20;99.90;;;8.16;58.25;102810.84;5114345;28;20062;-72
2022/02/11 08:38:05;;;;;;;30.55;6.93;;;8.00;99.90;;;8.59;57.79;102829.13;5114185;28;20050;-71
2022/02/11 08:40:35;;;;;;;19.92;7.28;;;8.40;99.90;;;8.56;56.94;102835.19;5113536;27;20150;-70
2022/02/11 08:43:04;;;;;;;25.45;7.00;;;8.50;99.90;;;8.90;55.83;102843.41;5114322;28;20075;-65
2022/02/11 08:45:39;;;;;;;25.95;6.57;;;8.70;99.90;;;9.06;54.99;102851.03;5114064;28;20035;-70
2022/02/11 08:48:08;;;;;;;26.23;7.20;;;9.00;99.90;;;9.10;53.68;102866.13;5114043;28;20051;-69
2022/02/11 08:50:41;;;;;;;20.63;6.30;;;9.00;99.90;;;9.00;53.03;102865.78;5114174;28;20051;-65
2022/02/11 08:53:31;;;;;;;24.42;6.40;;;9.00;99.90;;;9.21;52.08;102849.75;5113928;28;20131;-70
2022/02/11 08:56:03;;;;;;;20.15;6.95;;;9.30;99.90;;;9.69;51.47;102873.34;5113623;28;20067;-70
2022/02/11 08:58:31;;;;;;;23.98;6.88;;;9.60;99.90;;;9.81;50.58;102879.00;5113839;28;20567;-70
2022/02/11 09:01:00;;;;;;;22.35;6.43;;;9.80;99.90;;;9.73;50.34;102891.09;5113736;28;20044;-69
2022/02/11 09:03:28;;;;;;;24.52;6.50;;;9.70;99.90;;;9.72;50.38;102894.56;5112703;28;20530;-69
2022/02/11 09:05:58;;;;;;;24.05;6.75;;;9.70;99.90;;;9.77;50.16;102893.00;5113966;28;20067;-66
2022/02/11 09:08:27;;;;;;;23.60;6.00;;;9.80;99.90;;;9.94;50.18;102901.41;5113796;28;20044;-66
2022/02/11 09:10:55;;;;;;;22.00;6.55;;;9.80;99.90;;;9.85;50.75;102907.31;5113760;28;20078;-68
2022/02/11 09:13:26;;;;;;;18.90;6.13;;;9.80;99.90;;;9.55;50.63;102895.78;5113604;28;20040;-66
2022/02/11 09:15:54;;;;;;;17.13;5.70;;;9.60;99.90;;;10.13;50.74;102918.75;5113606;28;20043;-65
2022/02/11 09:18:23;;;;;;;21.40;5.80;;;9.90;99.90;;;10.70;49.80;102923.13;5113525;28;20138;-65
2022/02/11 09:20:51;;;;;;;13.57;5.65;;;10.30;99.90;;;10.97;49.31;102931.81;5113571;28;20116;-66
2022/02/11 09:23:23;;;;;;;19.92;7.00;;;10.70;99.90;;;11.53;48.00;102933.28;5113670;28;20043;-64
2022/02/11 09:25:52;;;;;;;25.33;6.38;;;11.30;99.90;;;11.38;46.88;102946.16;5113495;28;20052;-62
2022/02/11 09:28:20;;;;;;;20.65;6.22;;;11.40;99.90;;;10.96;46.94;102935.31;5113277;28;20047;-64
2022/02/11 09:30:49;;;;;;;22.73;5.72;;;11.10;99.90;;;10.91;47.81;102939.59;5113498;28;20043;-63
2022/02/11 09:33:17;;;;;;;22.77;6.63;;;10.80;99.90;;;10.65;47.60;102920.34;5113356;28;20086;-65
2022/02/11 09:35:47;;;;;;;14.55;5.60;;;10.70;99.90;;;10.72;47.07;102935.53;5113398;28;20095;-64
2022/02/11 09:38:18;;;;;;;19.17;6.07;;;10.70;99.90;;;11.12;46.65;102949.88;5113362;28;20452;-68
2022/02/11 09:40:50;;;;;;;19.63;6.50;;;11.00;99.90;;;10.92;46.44;102917.53;5113336;28;20126;-71
2022/02/11 09:43:20;;;;;;;17.90;6.65;;;11.10;99.90;;;11.33;46.11;102964.56;5113326;28;20043;-73
2022/02/11 09:45:49;;;;;;;21.15;5.72;;;11.20;99.90;;;10.86;46.65;102962.38;5113456;28;20036;-71
2022/02/11 09:48:17;;;;;;;21.90;6.00;;;10.80;99.90;;;11.02;47.01;102967.25;5113354;28;20438;-69
2022/02/11 09:50:44;;;;;;;21.08;6.07;;;11.00;99.90;;;10.82;47.31;102976.38;5128784;27;20083;-71
2022/02/11 09:53:18;;;;;;;21.65;5.97;;;10.70;99.90;;;10.10;48.46;102959.25;5113011;28;20077;-70
2022/02/11 09:55:47;;;;;;;18.55;5.95;;;10.30;99.90;;;9.96;49.90;102977.31;5112873;28;20142;-71
2022/02/11 09:58:20;;;;;;;22.75;6.20;;;9.90;99.90;;;9.97;50.03;102992.28;5113274;28;20067;-70
2022/02/11 10:00:52;;;;;;;20.33;6.20;;;9.80;99.90;;;10.41;50.11;102992.81;5112968;28;20481;-68
2022/02/11 10:03:22;;;;;;;21.70;6.30;;;10.20;99.90;;;10.19;49.48;102972.75;5112985;28;20035;-70
2022/02/11 10:05:51;;;;;;;22.50;6.80;;;10.20;99.90;;;10.44;50.34;102991.16;5112894;28;20047;-69
2022/02/11 10:08:19;;;;;;;17.23;5.80;;;10.30;99.90;;;9.72;47.70;103007.28;5113008;28;20281;-69
2022/02/11 10:10:52;;;;;;;23.80;6.22;;;9.80;99.90;;;10.07;47.54;103012.00;5113127;28;20053;-78
2022/02/11 10:13:25;;;;;;;18.63;6.03;;;9.90;99.90;;;9.88;47.79;103007.88;5112922;28;20513;-70
2022/02/11 10:15:57;;;;;;;22.02;5.85;;;9.80;99.90;;;9.69;47.24;103018.69;5112737;28;20092;-70
2022/02/11 10:18:30;;;;;;;;;;;9.60;99.90;;;9.75;47.06;102983.63;5113753;28;20040;-71
2022/02/11 10:21:00;;;;;;;17.25;5.80;;;9.70;99.90;;;10.04;47.11;103022.50;5112958;28;19927;-70
2022/02/11 10:23:32;;;;;;;16.35;5.72;;;9.80;99.90;;;10.68;46.39;103025.41;5112843;28;20429;-72
2022/02/11 10:26:07;;;;;;;18.50;5.07;;;10.40;99.90;;;10.83;45.67;103026.75;5112827;28;20496;-66
2022/02/11 10:28:39;;;;;;;14.30;5.00;;;10.70;99.90;;;10.58;44.69;103005.72;5112607;28;20042;-70
2022/02/11 10:31:12;;;;;;;23.70;5.63;;;10.70;99.90;;;10.30;45.96;103031.28;5112868;28;20442;-70
2022/02/11 10:34:00;;;;;;;19.05;5.80;;;10.30;99.90;;;10.12;46.81;103015.75;5112869;28;20043;-70
2022/02/11 10:36:32;;;;;;;22.85;5.75;;;10.10;99.90;;;10.54;46.54;103009.13;5112654;28;20040;-66
2022/02/11 10:39:20;;;;;;;15.27;6.10;;;10.60;99.90;;;11.11;45.77;103065.50;5112632;28;20055;-68
2022/02/11 10:41:55;;;;;;;16.92;5.88;;;10.90;99.90;;;11.19;46.17;103060.44;5112526;28;20040;-65
2022/02/11 10:44:26;;;;;;;20.63;5.70;;;11.10;99.90;;;11.04;46.66;103033.50;5112647;28;20047;-66
2022/02/11 10:47:03;;;;;;;19.02;5.90;;;11.10;99.90;;;11.63;46.60;103028.97;5112603;28;20058;-65
2022/02/11 10:49:33;;;;;;;13.95;5.85;;;11.60;99.90;;;11.63;45.51;103066.06;5112537;28;20443;-64
2022/02/11 10:52:15;;;;;;;17.48;4.82;;;11.60;99.90;;;11.21;44.95;103062.25;5112432;28;20039;-63
2022/02/11 10:54:45;;;;;;;16.98;6.10;;;11.30;99.90;;;11.04;46.48;103071.50;5112355;28;20047;-66
2022/02/11 10:57:18;;;;;;;21.38;5.60;;;11.00;99.90;;;10.66;46.37;103080.03;5112513;28;20562;-66
2022/02/11 10:59:48;;;;;;;18.60;6.00;;;10.70;99.90;;;10.49;46.79;103082.16;5112498;28;20728;-68
2022/02/11 11:02:20;;;;;;;22.20;5.63;;;10.50;99.90;;;10.95;46.78;103070.31;5112368;28;20043;-68
2022/02/11 11:04:50;;;;;;;18.05;5.50;;;10.70;99.90;;;11.07;46.03;103082.16;5116257;27;20459;-69
2022/02/11 11:07:23;;;;;;;16.45;6.03;;;11.00;99.90;;;10.73;46.52;103079.38;5116065;28;20047;-68
2022/02/11 11:10:14;;;;;;;17.95;5.68;;;10.70;99.90;;;11.52;44.71;103093.16;5115897;28;20035;-67
2022/02/11 11:12:53;;;;;;;18.67;5.68;;;11.30;99.90;;;11.46;44.05;103064.75;5115860;28;20144;-67
2022/02/11 11:15:23;;;;;;;18.80;6.28;;;11.50;99.90;;;11.03;44.91;103090.91;5116047;28;20130;-66
2022/02/11 11:17:53;;;;;;;18.25;5.43;;;11.20;99.90;;;10.82;46.17;103108.75;5115891;28;20067;-65
2022/02/11 11:20:25;;;;;;;15.70;6.28;;;10.80;99.90;;;11.58;45.23;103101.28;5115729;28;20070;-64
2022/02/11 11:23:02;;;;;;;18.05;5.85;;;11.30;99.90;;;12.00;44.47;103105.09;5115569;28;20086;-66
2022/02/11 11:25:52;;;;;;;16.63;5.80;;;11.80;99.90;;;11.95;44.51;103095.22;5115677;28;20047;-63
2022/02/11 11:28:42;;;;;;;18.75;5.90;;;11.90;99.90;;;11.80;43.10;103101.03;5115633;28;20063;-66
2022/02/11 11:31:14;;;;;;;19.25;5.93;;;11.90;99.90;;;11.28;43.80;103072.19;5115530;28;20043;-65
2022/02/11 11:33:43;;;;;;;17.38;6.40;;;11.60;99.90;;;11.27;44.98;103086.28;5131449;27;20048;-62
2022/02/11 11:36:15;;;;;;;19.33;5.70;;;11.40;99.90;;;11.50;45.95;103105.47;5115428;28;20390;-65
2022/02/11 11:38:57;;;;;;;18.83;6.25;;;11.30;99.90;;;12.15;44.70;103132.03;5115470;28;20042;-66
2022/02/11 11:41:27;;;;;;;15.32;5.65;;;11.90;99.90;;;12.07;44.51;103120.31;5114938;28;20063;-66
2022/02/11 11:43:59;;;;;;;20.65;5.53;;;12.00;99.90;;;11.33;44.72;103102.38;5113870;28;20051;-66
2022/02/11 11:46:36;;;;;;;15.48;5.45;;;11.50;99.90;;;11.17;45.44;103115.13;5115730;28;20047;-69
2022/02/11 11:49:12;;;;;;;14.85;5.53;;;11.10;99.90;;;11.43;45.32;103124.72;5115498;28;20043;-64
2022/02/11 11:52:06;;;;;;;18.45;5.18;;;11.30;99.90;;;11.29;45.04;103121.66;5115237;28;20408;-63
2022/02/11 11:54:36;;;;;;;18.40;5.35;;;11.10;99.90;;;11.65;44.87;103127.13;5115338;28;20050;-64
2022/02/11 11:57:11;;;;;;;19.63;6.35;;;11.50;99.90;;;11.20;45.76;103116.13;5115218;28;20126;-65
2022/02/11 11:59:46;;;;;;;19.38;5.70;;;11.20;99.90;;;11.35;46.23;103127.16;5115107;28;20446;-65
2022/02/11 12:02:20;;;;;;;15.98;5.93;;;11.10;99.90;;;11.55;46.11;103125.06;5114863;28;20515;-64
2022/02/11 12:04:52;;;;;;;15.38;5.13;;;11.30;99.90;;;11.42;44.43;103107.03;5114869;28;20460;-64
2022/02/11 12:07:22;;;;;;;18.77;5.28;;;11.40;99.90;;;11.56;44.78;103126.84;5114829;28;20080;-64
2022/02/11 12:09:53;;;;;;;13.43;4.72;;;11.40;99.90;;;11.40;44.37;103030.13;5113730;28;20097;-64
2022/02/11 12:12:23;;;;;;;18.83;5.32;;;11.70;99.90;;;12.19;43.71;103122.41;5114839;28;20055;-64
2022/02/11 12:14:56;;;;;;;17.48;6.35;;;12.00;99.90;;;12.41;43.01;103135.31;5114743;28;20120;-65
2022/02/11 12:17:26;;;;;;;17.20;5.85;;;12.20;99.90;;;12.24;42.55;103126.03;5114744;28;20044;-65
2022/02/11 12:19:56;;;;;;;15.53;5.97;;;12.20;99.90;;;12.43;42.33;103154.81;5114702;28;20053;-66
2022/02/11 12:22:28;;;;;;;11.45;5.03;;;12.40;99.90;;;11.80;43.28;103140.81;5114593;28;20039;-66
2022/02/11 12:27:49;;;;;;;22.40;5.78;;;11.90;99.90;;;11.42;44.70;103134.41;5114507;28;20561;-66
2022/02/11 12:30:23;;;;;;;14.50;5.43;;;11.70;99.90;;;10.98;44.12;103126.91;5114619;28;20051;-64
2022/02/11 12:32:57;;;;;;;12.95;5.30;;;11.00;99.90;;;10.95;43.73;103113.59;5114637;28;20047;-65
2022/02/11 12:35:28;;;;;;;14.00;4.88;;;10.90;99.90;;;11.04;43.61;103150.03;5114456;28;20447;-64
2022/02/11 12:37:59;;;;;;;13.98;5.55;;;11.00;99.90;;;11.13;44.18;103139.75;5114335;28;20039;-66
2022/02/11 12:40:29;;;;;;;14.10;4.95;;;11.00;99.90;;;11.22;46.11;103145.31;5114314;28;20536;-66
2022/02/11 12:43:00;;;;;;;13.10;4.88;;;11.10;99.90;;;10.75;48.45;103146.50;5114174;28;20047;-66
2022/02/11 12:45:33;;;;;;;15.88;5.28;;;10.90;99.90;;;11.06;49.19;103149.25;5114189;28;20446;-66
2022/02/11 12:48:04;;;;;;;17.40;5.28;;;10.90;99.90;;;11.11;49.55;103147.63;5114249;28;20156;-64
2022/02/11 12:50:36;;;;;;;11.93;5.10;;;10.90;99.90;;;10.92;48.62;103108.19;5114039;28;20048;-64
2022/02/11 12:53:06;;;;;;;16.73;5.45;;;11.00;99.90;;;11.36;47.90;103147.47;5113967;28;20400;-63
2022/02/11 12:55:37;;;;;;;14.85;4.55;;;11.20;99.90;;;10.65;50.01;103136.47;5113639;28;20400;-63
2022/02/11 12:58:08;;;;;;;16.83;5.35;;;10.70;99.90;;;10.28;50.40;103122.94;5112615;28;20092;-66
2022/02/11 13:00:40;;;;;;;18.20;4.93;;;10.40;99.90;;;10.64;50.38;103145.28;5113917;28;20043;-66
2022/02/11 13:03:13;;;;;;;16.33;5.80;;;10.40;99.90;;;10.32;51.67;103148.59;5113736;28;20043;-68
2022/02/11 13:05:52;;;;;;;17.58;5.85;;;10.30;99.90;;;10.63;51.56;103087.88;5114057;28;20051;-71
2022/02/11 13:08:23;;;;;;;13.35;4.93;;;10.70;99.90;;;11.04;53.11;103145.66;5114130;28;20055;-67
2022/02/11 13:11:01;;;;;;;16.20;5.93;;;10.90;99.90;;;11.10;53.39;103172.31;5113953;28;20044;-69
2022/02/11 13:13:31;;;;;;;16.30;4.72;;;10.90;99.90;;;11.07;53.68;103169.56;5113478;28;20048;-70
2022/02/11 13:16:05;;;;;;;13.80;5.15;;;11.00;99.90;;;11.02;54.37;103173.84;5113587;28;20047;-73
2022/02/11 13:18:40;;;;;;;10.82;4.70;;;10.90;99.90;;;10.87;54.76;103146.88;5113900;28;20481;-70
2022/02/11 13:21:10;;;;;;;11.93;5.05;;;11.00;99.90;;;11.18;54.74;103185.78;5113949;28;20457;-69
2022/02/11 13:23:39;;;;;;;16.13;5.43;;;11.00;99.90;;;11.17;55.24;103190.19;5114263;28;20089;-70
2022/02/11 13:26:14;;;;;;;11.43;5.25;;;11.00;99.90;;;11.03;56.20;103196.84;5129635;27;20449;-69
2022/02/11 13:28:48;;;;;;;15.52;5.75;;;10.90;99.90;;;11.11;57.50;103205.00;5114171;28;20047;-70
2022/02/11 13:31:18;;;;;;;13.63;5.70;;;11.00;99.90;;;11.14;58.18;103195.41;5112820;28;20051;-69
2022/02/11 13:33:49;;;;;;;14.55;4.95;;;11.00;99.90;;;11.28;58.53;103193.16;5114122;28;20035;-69
2022/02/11 13:36:26;;;;;;;17.27;5.15;;;11.10;99.90;;;10.82;57.55;103154.69;5112755;28;20062;-67
2022/02/11 13:38:54;;;;;;;12.80;5.47;;;11.00;99.90;;;10.32;58.24;103175.97;5112779;28;20051;-66
2022/02/11 13:41:28;;;;;;;17.48;5.35;;;10.30;99.90;;;10.53;58.18;103189.91;5113715;28;20370;-66
2022/02/11 13:44:01;;;;;;;13.57;5.10;;;10.30;99.90;;;10.75;58.17;103168.59;5113608;28;20096;-63
2022/02/11 13:46:56;;;;;;;18.55;5.78;;;10.50;99.90;;;10.84;57.54;103179.44;5129893;27;20047;-65
2022/02/11 13:49:26;;;;;;;11.02;4.53;;;10.60;99.90;;;10.96;57.46;103171.00;5113562;28;20043;-69
2022/02/11 13:54:58;;;;;;;19.95;6.00;;;10.90;99.90;;;10.85;57.92;103196.25;5082181;28;20052;-66
2022/02/11 13:57:27;;;;;;;18.05;5.88;;;10.60;99.90;;;10.86;58.03;103193.63;5113799;28;20545;-66
2022/02/11 13:59:56;;;;;;;18.73;5.95;;;10.60;99.90;;;10.86;58.76;103190.09;5113575;28;20054;-68
2022/02/11 14:02:42;;;;;;;15.02;5.45;;;10.60;99.90;;;10.85;59.51;103190.94;5113392;28;20077;-67